Terminal Aerodrome Forecast
Issued by NWS

Home | Current Version | Previous Version | Text Only | Print | Product List | Glossary On
Versions: 1 2 3 4 5 6 7 8 9 10 11 12 13 14 15 16
527
FTUS44 KTSA 231120
TAFBVO
TAF
KBVO 231120Z 2312/2412 00000KT P6SM BKN013
      TEMPO 2312/2315 BKN008
     FM231500 35008KT P6SM VCSH BKN025
     FM231800 34009G15KT P6SM BKN050
     FM240000 32002KT P6SM BKN150=

USA.gov is the U.S. government's official web portal to all federal, state and local government web resources and services.